createdAt,value
2023-06-29T00:00:39.365Z,0
2023-06-29T00:01:54.046Z,0
2023-06-29T00:03:08.026Z,0
2023-06-29T00:04:22.661Z,0
2023-06-29T00:05:37.328Z,0
2023-06-29T00:06:51.999Z,0
2023-06-29T00:08:06.688Z,0
2023-06-29T00:09:21.405Z,0
2023-06-29T00:10:36.026Z,0
2023-06-29T00:11:50.699Z,0
2023-06-29T00:13:05.374Z,0
2023-06-29T00:14:20.088Z,0
2023-06-29T00:15:34.073Z,0
2023-06-29T00:16:47.981Z,0
2023-06-29T00:18:02.658Z,0
2023-06-29T00:19:17.327Z,0
2023-06-29T00:20:31.994Z,0
2023-06-29T00:21:46.673Z,0
2023-06-29T00:23:01.340Z,0
2023-06-29T00:24:16.068Z,0
2023-06-29T00:25:30.688Z,0
2023-06-29T00:26:45.358Z,0
2023-06-29T00:28:00.040Z,0
2023-06-29T00:29:14.714Z,0
2023-06-29T00:30:29.432Z,0
2023-06-29T00:31:44.108Z,0
2023-06-29T00:32:58.036Z,0
2023-06-29T00:34:12.040Z,0
2023-06-29T00:35:26.667Z,0
2023-06-29T00:36:41.378Z,0
2023-06-29T00:37:56.004Z,0
2023-06-29T00:39:10.689Z,0
2023-06-29T00:40:25.396Z,0
2023-06-29T00:41:40.075Z,0
2023-06-29T00:42:54.700Z,0
2023-06-29T00:44:09.378Z,0
2023-06-29T00:45:24.046Z,0
2023-06-29T00:46:38.771Z,0
2023-06-29T00:47:53.442Z,0
2023-06-29T00:49:08.062Z,0
2023-06-29T00:50:22.009Z,0
2023-06-29T00:51:36.694Z,0
2023-06-29T00:52:51.366Z,0
2023-06-29T00:54:06.029Z,0
2023-06-29T00:56:35.431Z,0
2023-06-29T00:57:50.050Z,0
2023-06-29T00:59:04.728Z,0
2023-06-29T01:00:19.409Z,0
2023-06-29T01:01:34.075Z,0
2023-06-29T01:02:48.801Z,0
2023-06-29T01:04:03.422Z,0
2023-06-29T01:05:18.102Z,0
2023-06-29T01:06:32.766Z,0
2023-06-29T01:07:46.723Z,0
2023-06-29T01:09:01.447Z,0
2023-06-29T01:10:16.073Z,0
2023-06-29T01:11:30.744Z,0
2023-06-29T01:12:45.474Z,0
2023-06-29T01:14:00.128Z,0
2023-06-29T01:15:14.811Z,0
2023-06-29T01:16:29.486Z,0
2023-06-29T01:17:44.112Z,0
2023-06-29T01:18:58.783Z,0
2023-06-29T01:20:13.457Z,0
2023-06-29T01:21:28.129Z,0
2023-06-29T01:22:42.799Z,0
2023-06-29T01:23:57.476Z,0
2023-06-29T01:25:11.472Z,0
2023-06-29T01:26:26.136Z,0
2023-06-29T01:27:40.766Z,0
2023-06-29T01:28:55.445Z,0
2023-06-29T01:30:10.165Z,0
2023-06-29T01:31:24.783Z,0
2023-06-29T01:32:39.461Z,0
2023-06-29T01:33:54.130Z,0
2023-06-29T01:35:08.867Z,0
2023-06-29T01:36:23.494Z,0
2023-06-29T01:37:38.159Z,0
2023-06-29T01:38:52.831Z,0
2023-06-29T01:40:07.510Z,0
2023-06-29T01:41:22.183Z,0
2023-06-29T01:42:36.171Z,0
2023-06-29T01:43:50.803Z,0
2023-06-29T01:45:05.465Z,0
2023-06-29T01:46:20.193Z,0
2023-06-29T01:48:49.543Z,0
2023-06-29T01:50:04.167Z,0
2023-06-29T01:51:18.833Z,0
2023-06-29T01:53:48.190Z,0
2023-06-29T01:55:02.863Z,0
2023-06-29T01:56:17.534Z,0
2023-06-29T01:57:32.210Z,0
2023-06-29T01:58:46.881Z,0
2023-06-29T02:00:01.614Z,0
2023-06-29T02:01:16.226Z,0
2023-06-29T02:02:30.899Z,0
2023-06-29T02:03:45.572Z,0
2023-06-29T02:04:59.522Z,0
2023-06-29T02:06:14.193Z,0
2023-06-29T02:07:28.862Z,0
2023-06-29T02:08:43.608Z,0
2023-06-29T02:11:12.884Z,0
2023-06-29T02:12:27.621Z,0
2023-06-29T02:14:56.223Z,0
2023-06-29T02:16:10.954Z,0
2023-06-29T02:17:25.566Z,0
2023-06-29T02:18:39.559Z,0
2023-06-29T02:19:54.224Z,0
2023-06-29T02:21:08.897Z,0
2023-06-29T02:22:22.852Z,1
2023-06-29T02:23:37.405Z,1
2023-06-29T02:24:52.086Z,1
2023-06-29T02:26:06.698Z,1
2023-06-29T02:28:35.943Z,2
2023-06-29T02:29:50.568Z,2
2023-06-29T02:32:19.810Z,1
2023-06-29T02:33:34.425Z,2
2023-06-29T02:34:49.038Z,2
2023-06-29T02:36:02.926Z,3
2023-06-29T02:37:17.597Z,2
2023-06-29T02:38:32.159Z,2
2023-06-29T02:39:46.788Z,5
2023-06-29T02:41:00.662Z,4
2023-06-29T02:42:15.288Z,2
2023-06-29T02:43:29.913Z,5
2023-06-29T02:44:44.524Z,5
2023-06-29T02:45:59.155Z,7
2023-06-29T02:47:13.762Z,9
2023-06-29T02:48:28.400Z,10
2023-06-29T02:49:43.008Z,11
2023-06-29T02:50:57.622Z,13
2023-06-29T02:52:11.574Z,14
2023-06-29T02:53:26.182Z,17
2023-06-29T02:54:40.000Z,16
2023-06-29T02:55:55.425Z,18
2023-06-29T02:58:23.936Z,26
2023-06-29T02:59:38.547Z,27
2023-06-29T03:00:52.433Z,29
2023-06-29T03:02:07.060Z,28
2023-06-29T03:03:21.698Z,31
2023-06-29T03:04:36.296Z,38
2023-06-29T03:05:50.915Z,39
2023-06-29T03:07:05.550Z,44
2023-06-29T03:08:20.158Z,43
2023-06-29T03:09:34.797Z,44
2023-06-29T03:12:04.039Z,51
2023-06-29T03:13:18.647Z,53
2023-06-29T03:15:47.890Z,57
2023-06-29T03:17:02.500Z,63
2023-06-29T03:18:17.122Z,63
2023-06-29T03:19:31.043Z,67
2023-06-29T03:20:45.669Z,68
2023-06-29T03:22:00.296Z,73
2023-06-29T03:23:14.909Z,73
2023-06-29T03:24:29.543Z,80
2023-06-29T03:25:44.150Z,86
2023-06-29T03:26:58.032Z,90
2023-06-29T03:28:12.676Z,94
2023-06-29T03:29:27.289Z,93
2023-06-29T03:30:41.896Z,94
2023-06-29T03:31:55.845Z,104
2023-06-29T03:33:10.448Z,106
2023-06-29T03:34:25.073Z,108
2023-06-29T03:35:38.950Z,111
2023-06-29T03:36:53.570Z,103
2023-06-29T03:38:08.208Z,103
2023-06-29T03:39:22.827Z,109
2023-06-29T03:40:37.448Z,99
2023-06-29T03:41:52.063Z,94
2023-06-29T03:43:06.673Z,102
2023-06-29T03:44:20.612Z,101
2023-06-29T03:45:35.240Z,118
2023-06-29T03:46:49.835Z,109
2023-06-29T03:48:04.473Z,133
2023-06-29T03:49:19.087Z,133
2023-06-29T03:50:33.700Z,142
2023-06-29T03:51:48.341Z,151
2023-06-29T03:53:02.953Z,161
2023-06-29T03:54:17.581Z,185
2023-06-29T03:55:32.188Z,193
2023-06-29T03:56:46.798Z,233
2023-06-29T03:58:01.417Z,227
2023-06-29T03:59:15.329Z,255
2023-06-29T04:00:29.949Z,258
2023-06-29T04:01:44.543Z,260
2023-06-29T04:02:59.180Z,255
2023-06-29T04:04:13.796Z,268
2023-06-29T04:05:28.405Z,278
2023-06-29T04:06:43.028Z,288
2023-06-29T04:07:57.657Z,307
2023-06-29T04:09:12.273Z,319
2023-06-29T04:10:26.909Z,340
2023-06-29T04:11:41.507Z,348
2023-06-29T04:12:56.138Z,341
2023-06-29T04:14:10.754Z,156
2023-06-29T04:15:25.370Z,284
2023-06-29T04:16:39.990Z,312
2023-06-29T04:17:54.605Z,1557
2023-06-29T04:19:08.519Z,918
2023-06-29T04:21:37.747Z,617
2023-06-29T04:22:52.352Z,236
2023-06-29T04:24:06.972Z,537
2023-06-29T04:25:21.620Z,1442
2023-06-29T04:27:50.842Z,1460
2023-06-29T04:29:05.457Z,1407
2023-06-29T04:30:20.076Z,1477
2023-06-29T04:31:34.695Z,1538
2023-06-29T04:32:49.310Z,1528
2023-06-29T04:34:03.925Z,1510
2023-06-29T04:35:18.547Z,1626
2023-06-29T04:36:32.450Z,1647
2023-06-29T04:37:47.068Z,1641
2023-06-29T04:39:01.684Z,1668
2023-06-29T04:40:16.312Z,1661
2023-06-29T04:41:30.912Z,1618
2023-06-29T04:42:45.541Z,1590
2023-06-29T04:44:00.170Z,1658
2023-06-29T04:45:14.781Z,1628
2023-06-29T04:46:29.402Z,1696
2023-06-29T04:47:44.024Z,1682
2023-06-29T04:48:58.639Z,1645
2023-06-29T04:51:27.871Z,1679
2023-06-29T04:52:42.510Z,1597
2023-06-29T04:53:57.111Z,1595
2023-06-29T04:55:11.001Z,1611
2023-06-29T04:56:25.617Z,1653
2023-06-29T04:58:54.872Z,1749
2023-06-29T05:00:09.471Z,1789
2023-06-29T05:01:24.092Z,1835
2023-06-29T05:02:38.721Z,2076
2023-06-29T05:05:07.959Z,2317
2023-06-29T05:06:22.597Z,2237
2023-06-29T05:07:37.194Z,2352
2023-06-29T05:08:51.114Z,2457
2023-06-29T05:10:05.752Z,2399
2023-06-29T05:11:19.625Z,2942
2023-06-29T05:12:34.240Z,2829
2023-06-29T05:13:48.879Z,3114
2023-06-29T05:15:03.497Z,2807
2023-06-29T05:16:18.112Z,3073
2023-06-29T05:17:32.718Z,3487
2023-06-29T05:18:47.362Z,2719
2023-06-29T05:20:01.957Z,2472
2023-06-29T05:21:16.600Z,2674
2023-06-29T05:22:31.208Z,2237
2023-06-29T05:23:45.849Z,2771
2023-06-29T05:24:59.753Z,3052
2023-06-29T05:26:13.648Z,2673
2023-06-29T05:27:28.255Z,3320
2023-06-29T05:28:42.873Z,3303
2023-06-29T05:29:57.506Z,3637
2023-06-29T05:31:12.118Z,3398
2023-06-29T05:32:26.739Z,3018
2023-06-29T05:33:41.354Z,3213
2023-06-29T05:34:55.985Z,3045
2023-06-29T05:36:10.604Z,3030
2023-06-29T05:37:25.230Z,2703
2023-06-29T05:39:54.467Z,3313
2023-06-29T05:41:09.074Z,3115
2023-06-29T05:42:22.969Z,3130
2023-06-29T05:43:37.594Z,3361
2023-06-29T05:44:52.221Z,3015
2023-06-29T05:46:06.827Z,3308
2023-06-29T05:47:21.460Z,2769
2023-06-29T05:48:36.071Z,3269
2023-06-29T05:49:50.680Z,3491
2023-06-29T05:51:05.325Z,3177
2023-06-29T05:52:19.917Z,2556
2023-06-29T05:53:34.548Z,2959
2023-06-29T05:54:49.159Z,4736
2023-06-29T05:56:03.788Z,3650
2023-06-29T05:57:18.421Z,3961
2023-06-29T05:58:33.041Z,3188
2023-06-29T05:59:47.000Z,3915
2023-06-29T06:01:02.273Z,2854
2023-06-29T06:02:16.876Z,3679
2023-06-29T06:03:30.770Z,5995
2023-06-29T06:04:45.408Z,5460
2023-06-29T06:06:00.013Z,4911
2023-06-29T06:07:14.620Z,4773
2023-06-29T06:08:29.260Z,5580
2023-06-29T06:09:43.872Z,4253
2023-06-29T06:12:13.097Z,4330
2023-06-29T06:13:27.716Z,3069
2023-06-29T06:14:42.352Z,4128
2023-06-29T06:15:56.970Z,4623
2023-06-29T06:18:26.192Z,4015
2023-06-29T06:20:55.442Z,3254
2023-06-29T06:23:23.981Z,3290
2023-06-29T06:24:38.612Z,2929
2023-06-29T06:27:07.845Z,2689
2023-06-29T06:28:22.476Z,2591
2023-06-29T06:29:37.099Z,2583
2023-06-29T06:30:51.018Z,2386
2023-06-29T06:32:05.644Z,2611
2023-06-29T06:33:20.262Z,2500
2023-06-29T06:34:34.877Z,2555
2023-06-29T06:35:48.000Z,2618
2023-06-29T06:37:03.398Z,2625
2023-06-29T06:38:18.009Z,2671
2023-06-29T06:39:32.638Z,2617
2023-06-29T06:40:47.238Z,2603
2023-06-29T06:42:01.860Z,2646
2023-06-29T06:43:15.783Z,2751
2023-06-29T06:44:30.414Z,2795
2023-06-29T06:45:45.043Z,2614
2023-06-29T06:46:58.935Z,2732
2023-06-29T06:48:13.538Z,2503
2023-06-29T06:49:28.164Z,2565
2023-06-29T06:50:42.789Z,2792
2023-06-29T06:51:57.399Z,2755
2023-06-29T06:53:12.009Z,2887
2023-06-29T06:54:26.644Z,2928
2023-06-29T06:55:41.268Z,2939
2023-06-29T06:56:55.868Z,2953
2023-06-29T06:58:10.498Z,2980
2023-06-29T06:59:25.106Z,3005
2023-06-29T07:00:39.745Z,3002
2023-06-29T07:01:54.372Z,2993
2023-06-29T07:03:08.983Z,3052
2023-06-29T07:04:23.580Z,3067
2023-06-29T07:05:37.505Z,3087
2023-06-29T07:06:52.094Z,3053
2023-06-29T07:08:06.718Z,3083
2023-06-29T07:10:35.952Z,3082
2023-06-29T07:11:50.582Z,3086
2023-06-29T07:13:05.185Z,3135
2023-06-29T07:15:33.714Z,3162
2023-06-29T07:16:48.341Z,3119
2023-06-29T07:18:02.944Z,3144
2023-06-29T07:19:17.577Z,3166
2023-06-29T07:20:32.192Z,3171
2023-06-29T07:21:46.797Z,3173
2023-06-29T07:23:00.681Z,3195
2023-06-29T07:24:15.302Z,3195
2023-06-29T07:25:29.929Z,3246
2023-06-29T07:26:44.563Z,3250
2023-06-29T07:27:59.189Z,3244
2023-06-29T07:29:13.804Z,3259
2023-06-29T07:30:28.415Z,3291
2023-06-29T07:31:43.033Z,3291
2023-06-29T07:32:57.671Z,3275
2023-06-29T07:34:12.272Z,3271
2023-06-29T07:35:26.874Z,3262
2023-06-29T07:36:41.516Z,3271
2023-06-29T07:37:56.144Z,3295
2023-06-29T07:39:10.759Z,3310
2023-06-29T07:40:25.366Z,3301
2023-06-29T07:41:39.972Z,3306
2023-06-29T07:42:54.717Z,3304
2023-06-29T07:44:09.333Z,3316
2023-06-29T07:45:23.980Z,3334
2023-06-29T07:47:53.226Z,3322
2023-06-29T07:49:07.833Z,3336
2023-06-29T07:50:22.436Z,3339
2023-06-29T07:51:37.060Z,3349
2023-06-29T07:54:06.307Z,3332
2023-06-29T07:55:20.914Z,3360
2023-06-29T07:56:35.549Z,3315
2023-06-29T07:57:50.161Z,3329
2023-06-29T07:59:04.064Z,3317
2023-06-29T08:00:18.681Z,3315
2023-06-29T08:01:33.286Z,3333
2023-06-29T08:02:47.903Z,3321
2023-06-29T08:04:02.534Z,3308
2023-06-29T08:05:16.450Z,3324
2023-06-29T08:06:30.351Z,3304
2023-06-29T08:07:44.964Z,3302
2023-06-29T08:08:59.581Z,3307
2023-06-29T08:11:28.822Z,3336
2023-06-29T08:12:43.455Z,3373
2023-06-29T08:13:58.058Z,3331
2023-06-29T08:15:12.702Z,3326
2023-06-29T08:16:27.298Z,3341
2023-06-29T08:17:41.938Z,3348
2023-06-29T08:18:56.568Z,3331
2023-06-29T08:20:11.000Z,3323
2023-06-29T08:21:25.783Z,3339
2023-06-29T08:22:39.697Z,3335
2023-06-29T08:25:08.926Z,3296
2023-06-29T08:27:38.147Z,3194
2023-06-29T08:28:52.765Z,3311
2023-06-29T08:30:07.418Z,3933
2023-06-29T08:31:22.011Z,2687
2023-06-29T08:32:35.949Z,3014
2023-06-29T08:33:50.580Z,3727
2023-06-29T08:35:04.463Z,1868
2023-06-29T08:36:19.062Z,2924
2023-06-29T08:37:33.711Z,3497
2023-06-29T08:38:48.310Z,2450
2023-06-29T08:40:02.933Z,3229
2023-06-29T08:42:32.187Z,3177
2023-06-29T08:43:46.782Z,2470
2023-06-29T08:46:16.057Z,3113
2023-06-29T08:47:30.656Z,3210
2023-06-29T08:48:44.570Z,2161
2023-06-29T08:51:13.820Z,3021
2023-06-29T08:52:28.457Z,2663
2023-06-29T08:53:43.048Z,2850
2023-06-29T08:54:57.680Z,2923
2023-06-29T08:56:12.292Z,2820
2023-06-29T08:57:26.182Z,2892
2023-06-29T08:58:40.808Z,2872
2023-06-29T08:59:55.428Z,2857
2023-06-29T09:01:10.037Z,2828
2023-06-29T09:02:24.662Z,2727
2023-06-29T09:03:39.305Z,2769
2023-06-29T09:04:53.905Z,2840
2023-06-29T09:06:08.545Z,2974
2023-06-29T09:08:37.760Z,2405
2023-06-29T09:09:52.388Z,2677
2023-06-29T09:11:06.997Z,2787
2023-06-29T09:12:21.630Z,2482
2023-06-29T09:13:36.238Z,2784
2023-06-29T09:14:50.146Z,2444
2023-06-29T09:16:04.058Z,2586
2023-06-29T09:17:17.949Z,2594
2023-06-29T09:19:47.189Z,2558
2023-06-29T09:21:01.813Z,2521
2023-06-29T09:22:16.436Z,2506
2023-06-29T09:23:31.064Z,2606
2023-06-29T09:24:45.672Z,2374
2023-06-29T09:27:14.915Z,2452
2023-06-29T09:28:29.532Z,2427
2023-06-29T09:29:44.166Z,2361
2023-06-29T09:30:58.778Z,2670
2023-06-29T09:32:13.421Z,2523
2023-06-29T09:34:41.927Z,1358
2023-06-29T09:35:56.523Z,1959
2023-06-29T09:38:25.768Z,2366
2023-06-29T09:39:40.392Z,2409
2023-06-29T09:40:55.009Z,2372
2023-06-29T09:42:09.627Z,2327
2023-06-29T09:43:24.248Z,2366
2023-06-29T09:44:38.851Z,2464
2023-06-29T09:47:08.114Z,2192
2023-06-29T09:48:22.709Z,2193
2023-06-29T09:49:37.332Z,2255
2023-06-29T09:50:51.243Z,2300
2023-06-29T09:52:05.874Z,2293
2023-06-29T09:53:20.463Z,2315
2023-06-29T09:55:49.694Z,2356
2023-06-29T09:57:04.334Z,2179
2023-06-29T09:58:18.953Z,2254
2023-06-29T09:59:33.572Z,2266
2023-06-29T10:00:48.199Z,2234
2023-06-29T10:02:02.804Z,2212
2023-06-29T10:03:17.433Z,2216
2023-06-29T10:04:32.059Z,2203
2023-06-29T10:05:46.681Z,2143
2023-06-29T10:07:00.559Z,2118
2023-06-29T10:08:15.169Z,2160
2023-06-29T10:09:29.785Z,2042
2023-06-29T10:10:44.412Z,2116
2023-06-29T10:11:59.034Z,2080
2023-06-29T10:13:13.683Z,2046
2023-06-29T10:14:28.273Z,2081
2023-06-29T10:15:42.217Z,1942
2023-06-29T10:16:56.811Z,2026
2023-06-29T10:18:11.460Z,1919
2023-06-29T10:19:25.323Z,1960
2023-06-29T10:20:39.955Z,1898
2023-06-29T10:21:54.565Z,1898
2023-06-29T10:23:09.210Z,1897
2023-06-29T10:24:23.803Z,1834
2023-06-29T10:26:53.066Z,1813
2023-06-29T10:28:07.659Z,1796
2023-06-29T10:29:22.296Z,1718
2023-06-29T10:30:36.898Z,1728
2023-06-29T10:31:51.528Z,1752
2023-06-29T10:33:06.167Z,1716
2023-06-29T10:34:20.771Z,1707
2023-06-29T10:35:35.387Z,1639
2023-06-29T10:36:50.002Z,1706
2023-06-29T10:39:19.247Z,1666
2023-06-29T10:40:33.883Z,1670
2023-06-29T10:41:47.752Z,1678
2023-06-29T10:43:02.395Z,1709
2023-06-29T10:44:17.025Z,1649
2023-06-29T10:45:31.613Z,1714
2023-06-29T10:48:00.875Z,1673
2023-06-29T10:49:15.492Z,1672
2023-06-29T10:50:29.396Z,1681
2023-06-29T10:52:58.760Z,1621
2023-06-29T10:54:13.380Z,1383
2023-06-29T10:55:28.001Z,1234
2023-06-29T10:56:42.619Z,1499
2023-06-29T10:57:57.266Z,1607
2023-06-29T10:59:11.881Z,1630
2023-06-29T11:00:26.481Z,1658
2023-06-29T11:01:41.133Z,1717
2023-06-29T11:02:55.711Z,1919
2023-06-29T11:04:10.340Z,2421
2023-06-29T11:05:24.949Z,1724
2023-06-29T11:06:39.602Z,1291
2023-06-29T11:07:53.459Z,883
2023-06-29T11:10:22.712Z,2074
2023-06-29T11:11:37.319Z,1197
2023-06-29T11:12:51.970Z,1436
2023-06-29T11:14:06.559Z,1134
2023-06-29T11:15:21.208Z,1154
2023-06-29T11:16:35.798Z,634
2023-06-29T11:17:50.449Z,519
2023-06-29T11:19:05.049Z,1911
2023-06-29T11:20:19.690Z,2294
2023-06-29T11:21:33.589Z,559
2023-06-29T11:22:48.217Z,1886
2023-06-29T11:24:02.838Z,1038
2023-06-29T11:25:16.743Z,1208
2023-06-29T11:26:31.377Z,853
2023-06-29T11:27:45.986Z,505
2023-06-29T11:29:00.583Z,1940
2023-06-29T11:30:15.212Z,2317
2023-06-29T11:31:29.829Z,447
2023-06-29T11:32:44.441Z,1744
2023-06-29T11:33:59.056Z,2605
2023-06-29T11:35:13.025Z,1394
2023-06-29T11:36:27.657Z,389
2023-06-29T11:37:42.276Z,695
2023-06-29T11:40:10.805Z,1716
2023-06-29T11:41:25.409Z,1614
2023-06-29T11:42:40.026Z,1611
2023-06-29T11:43:54.634Z,2235
2023-06-29T11:45:09.262Z,1804
2023-06-29T11:46:23.876Z,1529
2023-06-29T11:47:38.528Z,589
2023-06-29T11:48:53.121Z,2086
2023-06-29T11:50:07.735Z,815
2023-06-29T11:51:22.375Z,1565
2023-06-29T11:52:37.001Z,1587
2023-06-29T11:53:51.631Z,1631
2023-06-29T11:55:06.209Z,1548
2023-06-29T11:56:20.843Z,1530
2023-06-29T11:57:35.480Z,1545
2023-06-29T11:58:49.340Z,1490
2023-06-29T12:00:03.968Z,1379
2023-06-29T12:01:18.577Z,1441
2023-06-29T12:02:33.202Z,1393
2023-06-29T12:03:47.824Z,1403
2023-06-29T12:05:02.453Z,1418
2023-06-29T12:06:17.086Z,1358
2023-06-29T12:07:31.717Z,1426
2023-06-29T12:08:46.323Z,1424
2023-06-29T12:10:00.933Z,2308
2023-06-29T12:11:15.550Z,476
2023-06-29T12:12:30.166Z,1458
2023-06-29T12:14:59.396Z,585
2023-06-29T12:16:14.018Z,608
2023-06-29T12:17:27.908Z,1307
2023-06-29T12:18:42.530Z,1306
2023-06-29T12:19:57.138Z,1260
2023-06-29T12:21:11.770Z,1248
2023-06-29T12:22:26.407Z,1236
2023-06-29T12:23:41.005Z,1234
2023-06-29T12:24:55.621Z,1230
2023-06-29T12:26:10.281Z,1234
2023-06-29T12:27:24.863Z,1200
2023-06-29T12:28:39.479Z,1186
2023-06-29T12:29:54.133Z,1199
2023-06-29T12:32:23.371Z,1142
2023-06-29T12:33:37.254Z,1178
2023-06-29T12:34:51.844Z,1169
2023-06-29T12:36:06.493Z,1171
2023-06-29T12:37:21.086Z,1140
2023-06-29T12:38:35.715Z,1214
2023-06-29T12:39:50.330Z,1269
2023-06-29T12:41:04.947Z,1295
2023-06-29T12:43:34.192Z,1277
2023-06-29T12:44:48.806Z,1296
2023-06-29T12:46:03.434Z,1252
2023-06-29T12:47:18.038Z,1292
2023-06-29T12:48:32.667Z,1258
2023-06-29T12:49:47.296Z,1291
2023-06-29T12:51:01.901Z,1289
2023-06-29T12:52:15.796Z,1316
2023-06-29T12:53:30.407Z,1322
2023-06-29T12:55:59.690Z,1350
2023-06-29T12:58:28.921Z,1337
2023-06-29T12:59:43.518Z,1497
2023-06-29T13:00:58.152Z,1501
2023-06-29T13:02:12.745Z,1547
2023-06-29T13:03:27.367Z,1537
2023-06-29T13:04:41.980Z,1582
2023-06-29T13:05:55.926Z,1565
2023-06-29T13:08:25.157Z,1627
2023-06-29T13:09:39.040Z,1740
2023-06-29T13:10:53.664Z,1678
2023-06-29T13:12:08.306Z,1735
2023-06-29T13:13:22.908Z,1747
2023-06-29T13:15:52.171Z,1784
2023-06-29T13:19:35.994Z,1869
2023-06-29T13:20:50.615Z,1829
2023-06-29T13:23:19.890Z,2110
2023-06-29T13:24:34.483Z,2644
2023-06-29T13:25:49.105Z,2371
2023-06-29T13:27:03.055Z,418
2023-06-29T13:28:16.914Z,2367
2023-06-29T13:29:31.543Z,408
2023-06-29T13:30:46.154Z,1866
2023-06-29T13:33:15.439Z,672
2023-06-29T13:34:30.012Z,2704
2023-06-29T13:35:44.631Z,2188
2023-06-29T13:36:59.254Z,1119
2023-06-29T13:38:13.902Z,2899
2023-06-29T13:39:28.519Z,2279
2023-06-29T13:41:57.722Z,613
2023-06-29T13:43:12.377Z,2527
2023-06-29T13:44:26.978Z,1785
2023-06-29T13:45:40.852Z,2513
2023-06-29T13:46:55.485Z,2422
2023-06-29T13:48:10.131Z,2560
2023-06-29T13:50:39.373Z,2974
2023-06-29T13:51:53.952Z,556
2023-06-29T13:53:08.608Z,2439
2023-06-29T13:54:23.193Z,2442
2023-06-29T13:55:37.807Z,2622
2023-06-29T13:56:52.466Z,437
2023-06-29T13:58:07.095Z,1920
2023-06-29T13:59:21.669Z,2337
2023-06-29T14:00:36.320Z,3135
2023-06-29T14:01:50.177Z,1054
2023-06-29T14:03:04.801Z,2492
2023-06-29T14:04:19.464Z,658
2023-06-29T14:05:34.066Z,761
2023-06-29T14:06:48.654Z,2905
2023-06-29T14:08:03.310Z,2893
2023-06-29T14:09:17.934Z,3754
2023-06-29T14:13:01.767Z,2943
2023-06-29T14:14:16.417Z,3397
2023-06-29T14:15:30.993Z,3467
2023-06-29T14:16:45.644Z,3539
2023-06-29T14:18:00.271Z,3642
2023-06-29T14:19:14.165Z,3787
2023-06-29T14:20:28.756Z,3847
2023-06-29T14:21:43.369Z,3792
2023-06-29T14:22:57.988Z,3717
2023-06-29T14:24:12.632Z,3870
2023-06-29T14:25:27.258Z,3930
2023-06-29T14:26:41.842Z,4241
2023-06-29T14:29:11.080Z,3682
2023-06-29T14:30:25.705Z,1458
2023-06-29T14:31:40.334Z,3422
2023-06-29T14:34:09.573Z,3692
2023-06-29T14:35:24.182Z,3606
2023-06-29T14:36:38.075Z,3574
2023-06-29T14:37:52.697Z,3532
2023-06-29T14:39:07.304Z,3561
2023-06-29T14:40:21.935Z,3505
2023-06-29T14:41:36.546Z,3551
2023-06-29T14:42:51.172Z,3541
2023-06-29T14:44:05.795Z,3531
2023-06-29T14:45:20.398Z,3456
2023-06-29T14:46:35.034Z,3350
2023-06-29T14:47:49.652Z,3473
2023-06-29T14:49:04.267Z,3567
2023-06-29T14:50:18.895Z,3619
2023-06-29T14:51:33.506Z,3464
2023-06-29T14:52:48.135Z,1533
2023-06-29T14:54:02.020Z,515
2023-06-29T14:55:16.634Z,3121
2023-06-29T14:56:31.261Z,3681
2023-06-29T14:57:45.872Z,4129
2023-06-29T14:59:00.490Z,3205
2023-06-29T15:00:15.119Z,3915
2023-06-29T15:01:29.764Z,3874
2023-06-29T15:02:44.348Z,3947
2023-06-29T15:03:58.271Z,4035
2023-06-29T15:05:12.927Z,4013
2023-06-29T15:06:27.519Z,3808
2023-06-29T15:07:42.148Z,4627
2023-06-29T15:08:56.795Z,4258
2023-06-29T15:11:25.992Z,739
2023-06-29T15:12:39.895Z,3730
2023-06-29T15:13:54.544Z,1590
2023-06-29T15:15:09.134Z,1509
2023-06-29T15:16:23.744Z,1557
2023-06-29T15:17:38.367Z,1608
2023-06-29T15:18:53.012Z,1414
2023-06-29T15:20:07.634Z,1222
2023-06-29T15:21:22.224Z,1136
2023-06-29T15:22:36.839Z,1126
2023-06-29T15:23:51.462Z,1147
2023-06-29T15:25:06.116Z,1247
2023-06-29T15:26:20.707Z,1336
2023-06-29T15:27:35.310Z,1384
2023-06-29T15:28:49.251Z,1467
2023-06-29T15:30:03.833Z,1516
2023-06-29T15:31:18.440Z,1247
2023-06-29T15:32:33.099Z,1577
2023-06-29T15:35:01.609Z,1010
2023-06-29T15:36:16.276Z,937
2023-06-29T15:38:45.464Z,934
2023-06-29T15:40:00.138Z,961
2023-06-29T15:41:14.844Z,1012
2023-06-29T15:43:44.077Z,1087
2023-06-29T15:46:13.324Z,1186
2023-06-29T15:47:27.924Z,1191
2023-06-29T15:48:42.547Z,1135
2023-06-29T15:51:11.836Z,991
2023-06-29T15:52:26.407Z,1150
2023-06-29T15:53:41.033Z,1071
2023-06-29T15:54:55.015Z,1116
2023-06-29T15:57:24.240Z,1135
2023-06-29T15:58:38.860Z,854
2023-06-29T15:59:52.786Z,1631
2023-06-29T16:01:07.381Z,1311
2023-06-29T16:02:22.031Z,1524
2023-06-29T16:03:36.605Z,1393
2023-06-29T16:06:05.843Z,959
2023-06-29T16:07:20.466Z,1554
2023-06-29T16:08:35.092Z,708
2023-06-29T16:09:49.743Z,5337
2023-06-29T16:11:04.370Z,2800
2023-06-29T16:12:18.950Z,2627
2023-06-29T16:13:33.559Z,1923
2023-06-29T16:14:48.186Z,1424
2023-06-29T16:16:02.813Z,728
2023-06-29T16:17:16.728Z,3175
2023-06-29T16:18:31.348Z,1277
2023-06-29T16:19:45.936Z,2354
2023-06-29T16:21:00.593Z,912
2023-06-29T16:22:15.175Z,3091
2023-06-29T16:23:29.804Z,20430
2023-06-29T16:24:44.412Z,7492
2023-06-29T16:27:12.961Z,1986
2023-06-29T16:28:27.596Z,4350
2023-06-29T16:29:42.364Z,3313
2023-06-29T16:30:56.937Z,913
2023-06-29T16:32:11.557Z,2020
2023-06-29T16:33:26.185Z,10312
2023-06-29T16:34:40.841Z,2696
2023-06-29T16:35:55.415Z,1970
2023-06-29T16:37:10.042Z,1424
2023-06-29T16:38:24.014Z,1093
2023-06-29T16:40:53.000Z,935
2023-06-29T16:42:07.872Z,923
2023-06-29T16:43:22.460Z,918
2023-06-29T16:44:37.078Z,857
2023-06-29T16:45:51.701Z,814
2023-06-29T16:47:05.577Z,801
2023-06-29T16:48:20.205Z,796
2023-06-29T16:49:34.815Z,705
2023-06-29T16:50:49.482Z,626
2023-06-29T16:52:04.051Z,606
2023-06-29T16:53:18.689Z,608
2023-06-29T16:54:33.308Z,606
2023-06-29T16:55:47.909Z,593
2023-06-29T16:58:17.161Z,681
2023-06-29T16:59:31.781Z,644
2023-06-29T17:00:45.749Z,643
2023-06-29T17:02:00.361Z,660
2023-06-29T17:03:14.996Z,709
2023-06-29T17:04:29.620Z,746
2023-06-29T17:05:44.229Z,628
2023-06-29T17:06:58.805Z,740
2023-06-29T17:08:13.462Z,617
2023-06-29T17:10:42.669Z,759
2023-06-29T17:11:57.287Z,939
2023-06-29T17:13:11.910Z,994
2023-06-29T17:15:40.421Z,893
2023-06-29T17:16:55.031Z,937
2023-06-29T17:18:09.689Z,782
2023-06-29T17:19:24.311Z,665
2023-06-29T17:20:38.898Z,657
2023-06-29T17:21:53.556Z,597
2023-06-29T17:23:08.125Z,526
2023-06-29T17:24:22.752Z,548
2023-06-29T17:25:37.418Z,428
2023-06-29T17:28:06.664Z,451
2023-06-29T17:29:21.276Z,458
2023-06-29T17:30:35.128Z,433
2023-06-29T17:31:49.743Z,452
2023-06-29T17:33:04.369Z,505
2023-06-29T17:34:18.979Z,510
2023-06-29T17:38:02.876Z,567
2023-06-29T17:41:46.697Z,669
2023-06-29T17:43:01.319Z,618
2023-06-29T17:45:30.611Z,616
2023-06-29T17:46:45.177Z,610
2023-06-29T17:47:59.106Z,601
2023-06-29T17:49:13.691Z,602
2023-06-29T17:50:28.301Z,611
2023-06-29T17:51:42.918Z,606
2023-06-29T17:54:12.159Z,600
2023-06-29T17:55:26.826Z,569
2023-06-29T17:56:41.397Z,546
2023-06-29T17:59:10.687Z,556
2023-06-29T18:00:25.272Z,513
2023-06-29T18:01:39.880Z,417
2023-06-29T18:04:09.163Z,399
2023-06-29T18:05:23.023Z,358
2023-06-29T18:06:37.633Z,376
2023-06-29T18:07:52.257Z,395
2023-06-29T18:09:06.871Z,427
2023-06-29T18:11:36.106Z,435
2023-06-29T18:12:50.769Z,416
2023-06-29T18:14:05.394Z,388
2023-06-29T18:15:19.960Z,357
2023-06-29T18:16:34.594Z,386
2023-06-29T18:17:49.216Z,405
2023-06-29T18:20:18.444Z,411
2023-06-29T18:21:33.118Z,400
2023-06-29T18:22:47.723Z,381
2023-06-29T18:24:01.576Z,358
2023-06-29T18:25:16.188Z,344
2023-06-29T18:26:30.854Z,330
2023-06-29T18:27:45.440Z,322
2023-06-29T18:29:00.090Z,310
2023-06-29T18:30:14.719Z,293
2023-06-29T18:31:29.288Z,283
2023-06-29T18:32:43.919Z,272
2023-06-29T18:33:58.575Z,266
2023-06-29T18:35:13.201Z,251
2023-06-29T18:36:27.765Z,245
2023-06-29T18:37:41.754Z,243
2023-06-29T18:38:56.317Z,233
2023-06-29T18:40:10.254Z,214
2023-06-29T18:41:24.875Z,201
2023-06-29T18:42:39.455Z,186